SFR690 FACT-FAOR
Flight info
| Callsign | SFR690 |
|---|---|
| Flight time | N/A |
| Altitude | 37000 |
| Route | TETAN1A TETAN UZ2 NIBEX NIBEX1D |
| Aircraft | B738/M-SDE2E3FGHIRWXY/LB1 |
Departure
| Time | 2026-05-06 12:53 |
|---|---|
| Airport | Cape Town International Airport (FACT) |
Arrival
| Time | N/A |
|---|---|
| Airport | O.R. Tambo International Airport (FAOR) |
| Time | Latitude | Longitude | Altitude | Speed | Heading |
|---|---|---|---|---|---|
| 2026-05-06 12:30 | -33.97035 | 18.59852 | 153 ft | 0 kts | 256° |
| 2026-05-06 12:44 | -33.97031 | 18.59870 | 153 ft | 4 kts | 256° |
| 2026-05-06 12:44 | -33.97025 | 18.59900 | 153 ft | 2 kts | 256° |
| 2026-05-06 12:45 | -33.97022 | 18.59926 | 153 ft | 4 kts | 292° |
| 2026-05-06 12:45 | -33.97037 | 18.59945 | 153 ft | 4 kts | 343° |
| 2026-05-06 12:45 | -33.97052 | 18.59949 | 153 ft | 0 kts | 346° |
| 2026-05-06 12:49 | -33.97020 | 18.59940 | 153 ft | 9 kts | 346° |
| 2026-05-06 12:49 | -33.96944 | 18.59915 | 153 ft | 13 kts | 344° |
| 2026-05-06 12:49 | -33.96842 | 18.59881 | 153 ft | 17 kts | 344° |
| 2026-05-06 12:50 | -33.96723 | 18.59841 | 153 ft | 18 kts | 344° |
| 2026-05-06 12:50 | -33.96604 | 18.59805 | 153 ft | 17 kts | 347° |
| 2026-05-06 12:50 | -33.96488 | 18.59773 | 153 ft | 17 kts | 350° |
| 2026-05-06 12:50 | -33.96376 | 18.59749 | 153 ft | 16 kts | 350° |
| 2026-05-06 12:51 | -33.96269 | 18.59727 | 153 ft | 15 kts | 354° |
| 2026-05-06 12:51 | -33.96180 | 18.59784 | 152 ft | 15 kts | 43° |
| 2026-05-06 12:51 | -33.96106 | 18.59869 | 153 ft | 14 kts | 45° |
| 2026-05-06 12:51 | -33.96040 | 18.59954 | 153 ft | 14 kts | 58° |
| 2026-05-06 12:52 | -33.96075 | 18.60037 | 153 ft | 13 kts | 163° |
| 2026-05-06 12:52 | -33.96199 | 18.60080 | 153 ft | 39 kts | 165° |
| 2026-05-06 12:52 | -33.96663 | 18.60222 | 156 ft | 97 kts | 165° |
| 2026-05-06 12:52 | -33.97477 | 18.60480 | 203 ft | 139 kts | 166° |
| 2026-05-06 12:53 | -33.98452 | 18.60763 | 579 ft | 148 kts | 167° |
| 2026-05-06 12:53 | -33.99501 | 18.61045 | 1006 ft | 156 kts | 165° |
| 2026-05-06 12:53 | -34.00494 | 18.61295 | 1811 ft | 145 kts | 165° |
| 2026-05-06 12:53 | -34.01546 | 18.61535 | 2099 ft | 166 kts | 165° |
| 2026-05-06 12:54 | -34.02665 | 18.62097 | 2267 ft | 187 kts | 135° |
| 2026-05-06 12:54 | -34.03154 | 18.63618 | 2430 ft | 216 kts | 92° |
| 2026-05-06 12:54 | -34.02621 | 18.65453 | 2731 ft | 246 kts | 68° |
| 2026-05-06 12:54 | -34.01765 | 18.67250 | 3268 ft | 254 kts | 66° |
| 2026-05-06 12:55 | -34.00855 | 18.69095 | 3913 ft | 257 kts | 66° |
| 2026-05-06 12:55 | -33.99931 | 18.70969 | 4515 ft | 263 kts | 66° |
| 2026-05-06 12:55 | -33.98993 | 18.72890 | 5104 ft | 268 kts | 66° |
| 2026-05-06 12:55 | -33.98046 | 18.74848 | 5694 ft | 272 kts | 66° |
| 2026-05-06 12:56 | -33.97093 | 18.76831 | 6335 ft | 275 kts | 66° |
| 2026-05-06 12:56 | -33.96127 | 18.78855 | 6935 ft | 281 kts | 66° |
| 2026-05-06 12:56 | -33.95149 | 18.80911 | 7572 ft | 285 kts | 65° |
| 2026-05-06 12:56 | -33.94482 | 18.82315 | 8005 ft | 287 kts | 65° |
| 2026-05-06 12:57 | -33.93497 | 18.84395 | 8626 ft | 292 kts | 65° |
| 2026-05-06 12:57 | -33.92479 | 18.86546 | 9252 ft | 297 kts | 65° |
| 2026-05-06 12:57 | -33.91448 | 18.88726 | 9913 ft | 302 kts | 65° |
| 2026-05-06 12:57 | -33.90398 | 18.90947 | 10424 ft | 312 kts | 65° |
| 2026-05-06 12:58 | -33.89291 | 18.93300 | 10584 ft | 334 kts | 65° |
| 2026-05-06 12:58 | -33.88114 | 18.95797 | 10839 ft | 351 kts | 64° |
| 2026-05-06 12:58 | -33.86891 | 18.98379 | 11361 ft | 357 kts | 64° |
| 2026-05-06 12:58 | -33.85652 | 19.00989 | 12014 ft | 359 kts | 64° |
| 2026-05-06 12:59 | -33.84409 | 19.03603 | 12731 ft | 361 kts | 64° |
| 2026-05-06 12:59 | -33.83154 | 19.06245 | 13405 ft | 365 kts | 64° |
| 2026-05-06 12:59 | -33.81902 | 19.08881 | 14087 ft | 369 kts | 64° |
| 2026-05-06 12:59 | -33.80621 | 19.11577 | 14744 ft | 371 kts | 64° |
| 2026-05-06 13:00 | -33.79334 | 19.14283 | 15421 ft | 374 kts | 64° |
| 2026-05-06 13:00 | -33.78038 | 19.17010 | 15990 ft | 378 kts | 64° |
| 2026-05-06 13:00 | -33.76722 | 19.19775 | 16588 ft | 383 kts | 64° |
| 2026-05-06 13:00 | -33.75394 | 19.22565 | 17170 ft | 387 kts | 64° |
| 2026-05-06 13:01 | -33.74050 | 19.25384 | 17777 ft | 391 kts | 63° |
| 2026-05-06 13:01 | -33.72689 | 19.28237 | 18325 ft | 396 kts | 63° |
| 2026-05-06 13:01 | -33.71313 | 19.31118 | 18865 ft | 397 kts | 63° |
| 2026-05-06 13:01 | -33.69933 | 19.34004 | 19417 ft | 400 kts | 63° |
| 2026-05-06 13:02 | -33.68542 | 19.36916 | 19977 ft | 400 kts | 62° |
| 2026-05-06 13:02 | -33.67159 | 19.39803 | 20694 ft | 399 kts | 62° |
| 2026-05-06 13:02 | -33.65702 | 19.42665 | 21114 ft | 405 kts | 56° |
| 2026-05-06 13:02 | -33.63998 | 19.45393 | 21552 ft | 410 kts | 53° |
| 2026-05-06 13:03 | -33.62209 | 19.48089 | 21981 ft | 416 kts | 53° |
| 2026-05-06 13:03 | -33.60402 | 19.50775 | 22300 ft | 423 kts | 53° |
| 2026-05-06 13:03 | -33.58562 | 19.53519 | 22957 ft | 420 kts | 53° |
| 2026-05-06 13:03 | -33.56727 | 19.56274 | 23421 ft | 424 kts | 53° |
| 2026-05-06 13:04 | -33.54888 | 19.59055 | 23897 ft | 426 kts | 53° |
| 2026-05-06 13:04 | -33.53045 | 19.61857 | 24237 ft | 429 kts | 53° |
| 2026-05-06 13:04 | -33.51195 | 19.64676 | 24653 ft | 431 kts | 54° |
| 2026-05-06 13:04 | -33.49339 | 19.67504 | 25031 ft | 432 kts | 54° |
| 2026-05-06 13:05 | -33.47476 | 19.70341 | 25510 ft | 432 kts | 54° |
| 2026-05-06 13:05 | -33.45615 | 19.73173 | 25907 ft | 433 kts | 53° |